Time;durP1;ratioP1;P1;durP2;ratioP2;P2;SDS_P1;SDS_P2;PMS_P1;PMS_P2;Temp;Humidity;BMP_temperature;BMP_pressure;BME280_temperature;BME280_humidity;BME280_pressure;Samples;Min_cycle;Max_cycle;Signal;HPM_P1;HPM_P2
2022/10/26 00:01:14;;;;;;;;;5.67;3.33;;;;;17.30;72.73;100635.69;4975756;28;45504;-72
2022/10/26 00:03:46;;;;;;;;;7.67;5.33;;;;;17.21;72.78;100642.09;4973695;28;45448;-71
2022/10/26 00:06:14;;;;;;;;;6.33;5.00;;;;;17.18;72.96;100652.78;4966046;28;45469;-71
2022/10/26 00:08:40;;;;;;;;;5.00;4.67;;;;;17.12;73.28;100639.69;4976732;28;45244;-71
2022/10/26 00:11:07;;;;;;;;;5.00;4.00;;;;;17.13;73.28;100644.94;4977114;28;46394;-69
2022/10/26 00:13:34;;;;;;;;;3.00;3.00;;;;;17.01;73.24;100624.06;4977040;28;45488;-70
2022/10/26 00:16:01;;;;;;;;;8.00;6.00;;;;;16.95;73.30;100614.53;4983801;28;45506;-70
2022/10/26 00:18:26;;;;;;;;;4.67;3.67;;;;;17.12;73.23;100637.03;4995117;28;45512;-72
2022/10/26 00:20:52;;;;;;;;;6.67;5.33;;;;;17.10;73.24;100633.56;4976335;28;46510;-70
2022/10/26 00:23:18;;;;;;;;;5.33;5.33;;;;;16.89;73.04;100611.19;4977070;28;45485;-71
2022/10/26 00:25:44;;;;;;;;;5.00;4.33;;;;;17.14;72.87;100648.47;4976969;28;45432;-71
2022/10/26 00:28:09;;;;;;;;;4.67;4.33;;;;;17.04;73.31;100634.59;4964507;28;45375;-71
2022/10/26 00:30:39;;;;;;;;;6.00;5.67;;;;;17.05;72.86;100625.75;4971944;28;45759;-69
2022/10/26 00:33:04;;;;;;;;;3.67;3.67;;;;;17.15;72.74;100648.41;4988820;28;45511;-71
2022/10/26 00:35:30;;;;;;;;;5.00;5.00;;;;;17.11;72.85;100640.63;4973836;28;45468;-71
2022/10/26 00:37:56;;;;;;;;;5.00;5.00;;;;;17.15;72.25;100648.41;4973314;28;45466;-71
2022/10/26 00:40:29;;;;;;;;;4.33;4.00;;;;;17.09;72.80;100631.84;4975162;28;45809;-71
2022/10/26 00:42:55;;;;;;;;;5.67;4.00;;;;;17.09;72.58;100645.94;4976191;28;45483;-70
2022/10/26 00:45:28;;;;;;;;;5.33;5.33;;;;;17.05;72.60;100638.97;4971261;28;45465;-71
2022/10/26 00:48:12;;;;;;;;;6.00;4.33;;;;;17.00;72.94;100655.88;4973433;28;45565;-71
2022/10/26 00:50:43;;;;;;;;;4.00;3.67;;;;;16.99;72.80;100649.75;4976753;28;45522;-70
2022/10/26 00:53:10;;;;;;;;;7.33;6.00;;;;;16.91;72.77;100627.88;4976492;28;45547;-70
2022/10/26 00:55:50;;;;;;;;;6.67;5.00;;;;;16.91;72.97;100641.13;4972835;28;45448;-70
2022/10/26 00:58:19;;;;;;;;;5.00;5.00;;;;;16.94;73.00;100638.38;4962919;28;45577;-70
2022/10/26 01:00:45;;;;;;;;;5.33;4.33;;;;;16.90;73.14;100655.25;4976120;28;46520;-69
2022/10/26 01:03:11;;;;;;;;;8.33;5.33;;;;;16.85;73.74;100658.03;4976212;28;45423;-70
2022/10/26 01:05:39;;;;;;;;;4.67;4.00;;;;;16.87;72.95;100669.44;4959154;28;45716;-69
2022/10/26 01:08:06;;;;;;;;;3.67;3.67;;;;;16.95;73.12;100674.53;4958490;28;45822;-70
2022/10/26 01:10:34;;;;;;;;;5.67;5.00;;;;;16.83;72.97;100665.13;4964479;28;46821;-71
2022/10/26 01:13:00;;;;;;;;;4.67;4.67;;;;;17.01;72.80;100686.72;4969926;28;45757;-70
2022/10/26 01:15:43;;;;;;;;;6.00;4.67;;;;;16.91;72.94;100678.16;4974057;28;45782;-69
2022/10/26 01:18:21;;;;;;;;;3.00;3.00;;;;;17.07;72.61;100694.50;5003376;28;45313;-70
2022/10/26 01:21:06;;;;;;;;;5.00;5.00;;;;;17.04;72.57;100697.25;4970561;28;45501;-71
2022/10/26 01:23:47;;;;;;;;;5.00;5.00;;;;;17.06;72.50;100696.31;4969377;28;45421;-70
2022/10/26 01:26:42;;;;;;;;;5.00;5.00;;;;;17.06;72.05;100706.88;4971549;28;45503;-70
2022/10/26 01:29:40;;;;;;;;;4.00;4.00;;;;;17.04;72.26;100699.91;4974047;28;45268;-68
2022/10/26 01:32:10;;;;;;;;;6.00;4.00;;;;;16.98;72.42;100692.09;4971690;28;46255;-70
2022/10/26 01:34:45;;;;;;;;;5.00;5.00;;;;;16.99;72.45;100692.06;4969746;28;45580;-70
2022/10/26 01:37:17;;;;;;;;;3.00;3.00;;;;;16.88;72.53;100689.69;4971590;28;45870;-70
2022/10/26 01:39:52;;;;;;;;;5.00;5.00;;;;;16.83;72.98;100685.41;4971481;28;45393;-69
2022/10/26 01:42:22;;;;;;;;;5.00;4.33;;;;;16.87;72.90;100690.59;4970084;28;48025;-69
2022/10/26 01:44:55;;;;;;;;;5.00;5.00;;;;;16.93;73.11;100705.44;4973368;28;45540;-70
2022/10/26 01:47:23;;;;;;;;;5.67;4.00;;;;;16.74;73.08;100673.25;4974424;28;45730;-70
2022/10/26 01:49:54;;;;;;;;;5.00;5.00;;;;;16.93;73.01;100701.00;4974241;28;45503;-70
2022/10/26 01:52:20;;;;;;;;;7.67;4.00;;;;;16.82;73.30;100691.59;4971378;28;45690;-69
2022/10/26 01:54:46;;;;;;;;;7.00;4.33;;;;;16.91;72.85;100691.38;4970995;28;45462;-69
2022/10/26 01:57:16;;;;;;;;;5.67;5.67;;;;;16.91;72.88;100696.66;4986912;28;45476;-71
2022/10/26 02:00:03;;;;;;;;;10.33;7.00;;;;;16.95;72.89;100703.63;4987200;28;45455;-70
2022/10/26 02:02:38;;;;;;;;;5.33;5.00;;;;;16.97;72.88;100703.59;4960502;28;45415;-70
2022/10/26 02:05:20;;;;;;;;;5.67;5.67;;;;;16.94;73.21;100696.56;4971014;28;45684;-72
2022/10/26 02:07:46;;;;;;;;;6.67;6.67;;;;;16.96;73.10;100729.16;4973525;28;45459;-69
2022/10/26 02:10:36;;;;;;;;;6.67;3.33;;;;;16.95;72.79;100719.50;4975688;28;45491;-70
2022/10/26 02:13:40;;;;;;;;;6.00;4.67;;;;;16.98;73.03;100724.72;4970897;28;45472;-70
2022/10/26 02:16:29;;;;;;;;;4.33;4.33;;;;;17.04;72.82;100727.22;4960037;28;45505;-70
2022/10/26 02:19:25;;;;;;;;;9.67;5.00;;;;;17.00;72.60;100712.31;4991330;27;45657;-72
2022/10/26 02:21:57;;;;;;;;;5.00;4.00;;;;;16.97;72.34;100703.59;4958456;28;45510;-70
2022/10/26 02:24:25;;;;;;;;;6.67;4.00;;;;;17.12;72.20;100727.00;4975247;28;46118;-71
2022/10/26 02:26:54;;;;;;;;;5.00;3.67;;;;;17.06;72.04;100709.53;4975604;28;45271;-70
2022/10/26 02:29:22;;;;;;;;;4.33;3.67;;;;;17.02;72.30;100699.91;4953926;28;45496;-71
2022/10/26 02:31:50;;;;;;;;;5.00;3.67;;;;;17.15;72.13;100719.00;4971953;28;45533;-70
2022/10/26 02:34:21;;;;;;;;;4.00;3.00;;;;;17.22;71.83;100727.66;4971903;28;46835;-70
2022/10/26 02:36:49;;;;;;;;;3.00;3.00;;;;;17.19;71.53;100710.06;4970965;28;45476;-70
2022/10/26 02:39:18;;;;;;;;;5.00;3.33;;;;;17.29;71.12;100721.28;4969324;28;45615;-70
2022/10/26 02:41:44;;;;;;;;;3.00;3.00;;;;;17.27;71.14;100702.78;4971506;28;45459;-71
2022/10/26 02:44:33;;;;;;;;;8.00;3.33;;;;;17.46;70.33;100718.19;4970812;28;45515;-70
2022/10/26 02:47:00;;;;;;;;;4.67;4.00;;;;;17.51;70.52;100734.81;4969318;28;45707;-70
2022/10/26 02:49:26;;;;;;;;;4.00;3.67;;;;;17.52;70.65;100724.19;4971080;28;45507;-69
2022/10/26 02:52:10;;;;;;;;;4.00;4.00;;;;;17.53;70.33;100728.56;4969818;28;45655;-69
2022/10/26 02:54:59;;;;;;;;;4.00;4.00;;;;;17.54;70.34;100726.81;4968998;28;47064;-69
2022/10/26 02:57:38;;;;;;;;;3.00;3.00;;;;;17.57;70.22;100729.38;4972247;28;45424;-70
2022/10/26 03:00:09;;;;;;;;;3.00;3.00;;;;;17.61;70.10;100725.75;4970406;28;45661;-71
2022/10/26 03:02:36;;;;;;;;;3.00;3.00;;;;;17.58;69.58;100716.09;4969247;28;45592;-70
2022/10/26 03:05:24;;;;;;;;;3.00;3.00;;;;;17.60;69.48;100716.91;4970104;28;45462;-70
2022/10/26 03:07:50;;;;;;;;;4.00;4.00;;;;;17.58;70.21;100713.44;4968296;28;45461;-70
2022/10/26 03:10:16;;;;;;;;;3.33;3.33;;;;;17.69;69.79;100726.38;4970290;28;45436;-70
2022/10/26 03:12:42;;;;;;;;;4.33;4.33;;;;;17.70;69.76;100720.19;4970245;28;45523;-70
2022/10/26 03:15:08;;;;;;;;;4.00;3.00;;;;;17.75;69.66;100728.88;4970115;28;46100;-70
2022/10/26 03:17:33;;;;;;;;;4.00;4.00;;;;;17.63;69.62;100700.09;4985815;28;45705;-69
2022/10/26 03:19:59;;;;;;;;;3.00;3.00;;;;;17.74;69.39;100726.25;4970576;28;45531;-70
2022/10/26 03:22:24;;;;;;;;;3.00;3.00;;;;;17.78;69.44;100728.78;4971978;28;45498;-70
2022/10/26 03:24:50;;;;;;;;;2.00;2.00;;;;;17.75;69.38;100715.63;4974092;28;45598;-71
2022/10/26 03:27:15;;;;;;;;;2.33;2.00;;;;;17.84;69.37;100735.72;4973331;28;45526;-70
2022/10/26 03:29:44;;;;;;;;;3.67;3.00;;;;;17.84;69.10;100748.09;4974839;28;45394;-71
2022/10/26 03:32:09;;;;;;;;;2.00;2.00;;;;;17.87;69.44;100763.91;4974505;28;45518;-70
2022/10/26 03:34:35;;;;;;;;;2.33;2.33;;;;;17.88;69.16;100760.34;4970110;28;46039;-69
2022/10/26 03:37:01;;;;;;;;;2.67;2.67;;;;;17.78;68.71;100739.38;4968637;28;45442;-70
2022/10/26 03:39:26;;;;;;;;;4.33;3.00;;;;;17.87;69.07;100759.50;4970357;28;45506;-71
2022/10/26 03:41:52;;;;;;;;;3.00;3.00;;;;;17.72;69.22;100744.84;4968589;28;45693;-70
2022/10/26 03:44:17;;;;;;;;;2.67;2.67;;;;;17.55;69.42;100720.59;4969846;28;46957;-70
2022/10/26 03:46:43;;;;;;;;;3.00;3.00;;;;;17.75;69.35;100749.22;4973325;28;45381;-70
2022/10/26 03:49:09;;;;;;;;;2.67;2.67;;;;;17.78;69.18;100760.56;4973692;28;45309;-70
2022/10/26 03:51:34;;;;;;;;;4.00;2.00;;;;;17.79;69.25;100780.84;4973646;28;45317;-69
2022/10/26 03:54:00;;;;;;;;;5.00;2.00;;;;;17.76;69.31;100778.28;4976904;28;45488;-70
2022/10/26 03:56:25;;;;;;;;;3.00;2.33;;;;;17.80;69.46;100790.56;4977302;28;45500;-70
2022/10/26 03:58:51;;;;;;;;;2.00;2.00;;;;;17.68;69.73;100798.81;4972344;28;45457;-70
2022/10/26 04:01:16;;;;;;;;;3.00;3.00;;;;;17.59;69.84;100793.75;4971988;28;45521;-71
2022/10/26 04:03:42;;;;;;;;;7.67;3.00;;;;;17.59;69.73;100805.22;4975722;28;46340;-70
2022/10/26 04:06:07;;;;;;;;;3.67;3.67;;;;;17.55;69.82;100800.91;4975649;28;45488;-70
2022/10/26 04:08:33;;;;;;;;;8.00;3.67;;;;;17.51;69.95;100798.38;4973893;28;45414;-70
2022/10/26 04:10:58;;;;;;;;;3.33;3.33;;;;;17.56;70.14;100812.38;4972837;28;45369;-69
2022/10/26 04:13:24;;;;;;;;;4.00;2.67;;;;;17.43;69.96;100787.13;4972431;28;45921;-69
2022/10/26 04:15:50;;;;;;;;;8.67;4.00;;;;;17.40;69.91;100784.56;4985366;28;45836;-70
2022/10/26 04:18:16;;;;;;;;;4.33;2.33;;;;;17.53;69.95;100813.31;4988613;28;45394;-70
2022/10/26 04:20:41;;;;;;;;;4.00;2.00;;;;;17.52;69.91;100816.03;4973351;28;45672;-71
2022/10/26 04:23:11;;;;;;;;;2.00;2.00;;;;;17.53;69.93;100823.03;4972413;28;46267;-70
2022/10/26 04:25:37;;;;;;;;;4.00;3.00;;;;;17.54;69.66;100830.97;4970988;28;45798;-71
2022/10/26 04:28:04;;;;;;;;;3.00;3.00;;;;;17.43;69.60;100806.50;4971022;28;45417;-71
2022/10/26 04:30:31;;;;;;;;;2.33;2.33;;;;;17.51;69.79;100827.50;4972937;28;45690;-71
2022/10/26 04:32:56;;;;;;;;;2.33;2.33;;;;;17.52;69.87;100840.72;4972991;28;45472;-70
2022/10/26 04:35:22;;;;;;;;;3.33;2.00;;;;;17.48;69.86;100831.09;4972089;28;45694;-68
2022/10/26 04:37:48;;;;;;;;;2.00;2.00;;;;;17.56;69.62;100855.63;4971212;28;45327;-71
2022/10/26 04:40:13;;;;;;;;;3.00;3.00;;;;;17.48;69.83;100851.41;4972725;28;45388;-70
2022/10/26 04:42:44;;;;;;;;;3.00;3.00;;;;;17.33;70.16;100842.94;4969777;28;48196;-72
2022/10/26 04:45:11;;;;;;;;;3.33;3.00;;;;;17.31;70.02;100836.81;4972711;28;45386;-70
2022/10/26 04:47:38;;;;;;;;;4.33;4.33;;;;;17.21;70.34;100830.00;4970552;28;45985;-70
2022/10/26 04:50:04;;;;;;;;;3.00;3.00;;;;;17.39;70.27;100868.38;4972558;28;45478;-71
2022/10/26 04:52:30;;;;;;;;;3.00;3.00;;;;;17.30;70.46;100872.16;4976290;28;45349;-70
2022/10/26 04:54:55;;;;;;;;;4.33;2.00;;;;;17.24;70.48;100866.97;4970922;28;45482;-70
2022/10/26 04:57:21;;;;;;;;;3.00;2.00;;;;;17.37;70.39;100892.28;4972739;28;45355;-69
2022/10/26 04:59:46;;;;;;;;;6.67;2.67;;;;;17.33;70.44;100884.44;4975529;28;45556;-69
2022/10/26 05:02:12;;;;;;;;;4.00;3.00;;;;;17.36;70.54;100887.88;4971830;28;46097;-70
2022/10/26 05:04:38;;;;;;;;;3.00;3.00;;;;;17.27;70.29;100880.13;4970391;28;45781;-70
2022/10/26 05:07:03;;;;;;;;;3.67;3.67;;;;;17.31;70.66;100902.13;4970979;28;45436;-69
2022/10/26 05:09:29;;;;;;;;;3.00;3.00;;;;;17.33;70.36;100903.84;4972041;28;45460;-70
2022/10/26 05:11:54;;;;;;;;;4.00;3.00;;;;;17.28;70.30;100900.44;4971777;28;45796;-70
2022/10/26 05:14:20;;;;;;;;;3.00;3.00;;;;;17.36;70.08;100910.84;4972462;28;45521;-69
2022/10/26 05:16:46;;;;;;;;;3.33;3.00;;;;;17.28;70.13;100900.44;4986023;28;45689;-70
2022/10/26 05:19:11;;;;;;;;;3.33;3.00;;;;;17.40;70.25;100916.94;4978358;27;45421;-70
2022/10/26 05:21:37;;;;;;;;;4.33;2.00;;;;;17.37;70.19;100913.47;4971687;28;45893;-70
2022/10/26 05:24:03;;;;;;;;;2.00;2.00;;;;;16.96;70.15;100861.44;4974334;28;45226;-70
2022/10/26 05:26:28;;;;;;;;;3.33;3.00;;;;;17.30;70.19;100926.88;4975817;28;45258;-71
2022/10/26 05:28:54;;;;;;;;;3.00;1.67;;;;;17.23;70.27;100915.56;4970592;28;45611;-70
2022/10/26 05:31:20;;;;;;;;;2.00;2.00;;;;;17.19;70.60;100924.47;4970465;28;46948;-71
2022/10/26 05:33:49;;;;;;;;;5.67;3.00;;;;;17.16;70.59;100913.94;4971872;28;45459;-70
2022/10/26 05:36:17;;;;;;;;;2.33;2.33;;;;;17.23;70.12;100935.88;4969854;28;45485;-70
2022/10/26 05:38:42;;;;;;;;;3.00;3.00;;;;;17.24;70.49;100941.09;4970529;28;45465;-69
2022/10/26 05:41:07;;;;;;;;;2.67;2.67;;;;;17.21;70.23;100937.66;4974167;28;45690;-70
2022/10/26 05:43:33;;;;;;;;;2.67;2.67;;;;;17.26;70.37;100949.03;4970463;28;45464;-70
2022/10/26 05:45:59;;;;;;;;;3.00;3.00;;;;;17.23;70.22;100954.38;4971934;28;45370;-70
2022/10/26 05:48:25;;;;;;;;;4.00;2.00;;;;;17.23;70.37;100962.34;4972061;28;45370;-69
2022/10/26 05:50:50;;;;;;;;;2.00;2.00;;;;;17.29;70.36;100968.34;4971758;28;45809;-69
2022/10/26 05:53:16;;;;;;;;;4.33;3.67;;;;;17.28;69.99;100966.59;4969989;28;45520;-69
2022/10/26 05:55:42;;;;;;;;;3.33;2.00;;;;;17.25;70.32;100974.63;4971143;28;45487;-69
2022/10/26 05:58:13;;;;;;;;;3.00;3.00;;;;;17.28;70.28;100973.69;4972107;28;45454;-69
2022/10/26 06:01:07;;;;;;;;;2.00;2.00;;;;;17.25;70.55;100981.66;4971177;28;45423;-69
2022/10/26 06:04:01;;;;;;;;;4.67;3.00;;;;;17.27;70.25;100985.16;4974669;28;45289;-71
2022/10/26 06:06:33;;;;;;;;;4.67;3.67;;;;;17.13;70.19;100965.16;4974845;28;45433;-69
2022/10/26 06:08:59;;;;;;;;;2.67;2.00;;;;;17.18;70.49;100975.66;4973145;28;45410;-70
2022/10/26 06:11:25;;;;;;;;;5.33;3.00;;;;;17.00;70.58;100957.53;4971078;28;45951;-70
2022/10/26 06:13:53;;;;;;;;;5.00;3.00;;;;;17.01;70.92;100972.47;4967836;28;45354;-70
2022/10/26 06:16:37;;;;;;;;;10.00;4.67;;;;;16.99;71.30;100979.56;4960433;28;45391;-71
2022/10/26 06:19:13;;;;;;;;;4.00;4.00;;;;;16.91;71.75;100977.09;4970068;28;45690;-70
2022/10/26 06:22:03;;;;;;;;;3.67;3.00;;;;;16.70;71.92;100943.97;4971714;28;46391;-70
2022/10/26 06:24:53;;;;;;;;;4.00;4.00;;;;;16.79;72.17;100972.91;4956296;28;45550;-69
2022/10/26 06:27:53;;;;;;;;;4.33;4.33;;;;;16.46;72.26;100922.41;4971201;28;45555;-70
2022/10/26 06:30:22;;;;;;;;;5.33;5.00;;;;;16.66;72.32;100982.84;4971764;28;45437;-68
2022/10/26 06:32:49;;;;;;;;;4.00;4.00;;;;;16.63;72.74;100985.53;4986407;28;46305;-68
2022/10/26 06:35:23;;;;;;;;;4.67;4.33;;;;;16.61;72.79;100997.03;4970374;28;45339;-69
2022/10/26 06:37:50;;;;;;;;;7.33;7.33;;;;;16.59;73.12;101009.44;4969302;28;45488;-69
2022/10/26 06:40:17;;;;;;;;;7.33;5.00;;;;;16.45;73.09;100997.34;4971013;28;45590;-70
2022/10/26 06:42:43;;;;;;;;;4.00;4.00;;;;;16.42;73.36;101000.03;4970075;28;45393;-71
2022/10/26 06:45:13;;;;;;;;;5.33;5.00;;;;;16.24;73.58;100984.50;4970321;28;45977;-71
2022/10/26 06:47:50;;;;;;;;;8.00;6.00;;;;;16.43;73.82;101028.22;4970726;28;45476;-69
2022/10/26 06:51:01;;;;;;;;;6.00;6.00;;;;;16.39;73.63;101036.22;4972622;28;45471;-71
2022/10/26 06:53:32;;;;;;;;;6.33;6.00;;;;;16.21;74.25;101014.50;4936749;28;47772;-71
2022/10/26 06:55:59;;;;;;;;;9.00;7.00;;;;;16.20;74.10;101025.94;4970604;28;45449;-71
2022/10/26 06:58:32;;;;;;;;;7.33;7.33;;;;;16.30;74.38;101048.72;4970748;28;45879;-71
2022/10/26 07:00:58;;;;;;;;;4.33;4.00;;;;;16.35;74.28;101056.56;4971020;28;45520;-70
2022/10/26 07:03:24;;;;;;;;;8.00;5.00;;;;;16.32;73.89;101049.56;4969762;28;45367;-71
2022/10/26 07:05:49;;;;;;;;;8.33;5.00;;;;;16.42;73.89;101063.50;4970108;28;45560;-71
2022/10/26 07:08:15;;;;;;;;;5.00;3.33;;;;;16.21;73.60;101030.34;4969614;28;45494;-70
2022/10/26 07:10:41;;;;;;;;;9.67;6.00;;;;;16.25;73.75;101034.69;4970380;28;45461;-71
2022/10/26 07:13:08;;;;;;;;;5.67;4.00;;;;;16.47;73.57;101072.22;4970378;28;45647;-71
2022/10/26 07:15:36;;;;;;;;;6.67;4.33;;;;;16.55;73.31;101074.72;4968681;28;45390;-70
2022/10/26 07:18:06;;;;;;;;;5.00;5.00;;;;;16.64;73.05;101082.50;4986884;28;45412;-70
2022/10/26 07:20:36;;;;;;;;;8.33;6.00;;;;;16.68;72.88;101083.28;4973470;28;45277;-70
2022/10/26 07:23:05;;;;;;;;;8.00;5.33;;;;;16.67;72.73;101086.84;4971762;28;45573;-69
2022/10/26 07:25:31;;;;;;;;;5.33;5.00;;;;;16.79;72.33;101093.72;4973571;28;45480;-70
2022/10/26 07:27:58;;;;;;;;;10.33;6.67;;;;;16.79;72.12;101091.09;4975055;28;45468;-71
2022/10/26 07:30:25;;;;;;;;;6.67;5.00;;;;;16.78;72.13;101100.78;4972134;28;45795;-71
2022/10/26 07:32:58;;;;;;;;;7.33;4.67;;;;;16.72;72.26;101100.88;4975385;28;46336;-70
2022/10/26 07:35:23;;;;;;;;;4.33;4.33;;;;;16.61;71.98;101082.56;4974046;28;45314;-71
2022/10/26 07:37:49;;;;;;;;;3.67;3.67;;;;;16.85;71.88;101107.72;4973073;28;45313;-69
2022/10/26 07:40:14;;;;;;;;;4.00;4.00;;;;;16.97;71.68;101125.16;4973302;28;45672;-70
2022/10/26 07:42:40;;;;;;;;;6.00;5.00;;;;;16.99;71.62;101122.47;4974345;28;45282;-69
2022/10/26 07:45:06;;;;;;;;;4.33;4.33;;;;;17.01;71.28;101123.31;4974166;28;45583;-71
2022/10/26 07:47:31;;;;;;;;;5.33;5.33;;;;;17.05;70.97;101109.13;4973410;28;45441;-70
2022/10/26 07:49:57;;;;;;;;;4.33;3.33;;;;;17.29;70.63;101143.06;4972539;28;45361;-71
2022/10/26 07:52:22;;;;;;;;;4.67;4.00;;;;;17.32;70.37;101142.13;4972232;28;45569;-71
2022/10/26 07:54:48;;;;;;;;;4.67;3.33;;;;;17.32;70.22;101136.81;4972591;28;45425;-70
2022/10/26 07:57:16;;;;;;;;;7.67;5.00;;;;;17.44;70.28;101151.59;4973016;28;45763;-71
2022/10/26 07:59:41;;;;;;;;;5.00;5.00;;;;;17.45;70.21;101132.19;4973132;28;45663;-71
2022/10/26 08:02:08;;;;;;;;;8.00;5.00;;;;;17.69;69.78;101157.28;4971198;28;46863;-70
2022/10/26 08:04:34;;;;;;;;;5.67;4.33;;;;;17.68;69.42;101126.41;4972652;28;45824;-70
2022/10/26 08:06:59;;;;;;;;;4.67;4.67;;;;;17.74;69.09;101128.91;4971455;28;45312;-70
2022/10/26 08:09:25;;;;;;;;;6.00;4.00;;;;;17.91;68.99;101147.13;4974923;28;45456;-71
2022/10/26 08:11:51;;;;;;;;;4.00;4.00;;;;;18.14;68.36;101150.16;4976267;28;46116;-70
2022/10/26 08:18:09;;;;;;;;;3.00;3.00;;;;;18.33;67.61;101158.53;4926354;28;45612;-72
2022/10/26 08:21:01;;;;;;;;;6.00;4.00;;;;;18.41;67.09;101166.31;4915404;28;45421;-69
2022/10/26 08:23:27;;;;;;;;;4.00;3.33;;;;;18.31;67.47;101172.75;4963096;28;45701;-69
2022/10/26 08:25:57;;;;;;;;;7.67;3.67;;;;;18.49;66.98;101177.63;4970635;28;45527;-69
2022/10/26 08:28:23;;;;;;;;;6.67;3.67;;;;;18.59;66.39;101168.53;4972686;28;45605;-69
2022/10/26 08:30:48;;;;;;;;;4.00;3.00;;;;;18.52;66.11;101145.72;4973908;28;45451;-70
2022/10/26 08:33:14;;;;;;;;;4.00;4.00;;;;;18.82;65.30;101177.75;4976825;28;46189;-69
2022/10/26 08:35:39;;;;;;;;;3.00;3.00;;;;;18.85;65.20;101175.88;4972306;28;45861;-70
2022/10/26 08:38:05;;;;;;;;;5.00;4.33;;;;;18.80;65.23;101163.66;4971035;28;45854;-71
2022/10/26 08:40:37;;;;;;;;;4.67;3.00;;;;;18.96;65.38;101178.28;4973244;28;45526;-69
2022/10/26 08:43:25;;;;;;;;;4.00;3.00;;;;;19.21;64.53;101191.75;4972422;28;45566;-70
2022/10/26 08:46:00;;;;;;;;;5.33;3.33;;;;;19.32;64.39;101177.34;4972556;28;45618;-69
2022/10/26 08:48:37;;;;;;;;;3.67;2.00;;;;;19.60;63.34;101186.28;4959543;28;45405;-69
2022/10/26 08:51:17;;;;;;;;;4.00;2.67;;;;;19.83;63.09;101169.69;4972221;28;45542;-69
2022/10/26 08:54:39;;;;;;;;;5.00;4.00;;;;;20.44;60.87;101169.59;5071376;28;45472;-71
2022/10/26 08:57:48;;;;;;;;;5.00;2.67;;;;;20.79;60.84;101180.06;5053723;28;45449;-71
2022/10/26 09:00:22;;;;;;;;;2.00;2.00;;;;;21.28;59.76;101195.19;5044321;28;45434;-69
2022/10/26 09:02:52;;;;;;;;;3.00;2.00;;;;;21.80;58.40;101208.47;5052879;28;45457;-71
2022/10/26 09:05:25;;;;;;;;;3.00;3.00;;;;;22.78;56.03;101196.63;5050888;28;46393;-71
2022/10/26 09:08:04;;;;;;;;;5.00;3.00;;;;;24.85;49.90;101180.09;5051113;28;45478;-70
2022/10/26 09:10:40;;;;;;;;;3.75;3.75;;;;;26.71;46.55;101188.84;5050141;28;45559;-68
2022/10/26 09:13:14;;;;;;;;;2.75;2.75;;;;;28.13;43.85;101208.88;5049297;28;45342;-70
2022/10/26 09:15:59;;;;;;;;;2.75;2.75;;;;;29.41;40.46;101197.69;5046794;28;46238;-69
2022/10/26 09:18:33;;;;;;;;;4.75;3.00;;;;;29.85;38.64;101215.28;5046612;28;45264;-68
2022/10/26 09:21:35;;;;;;;;;2.75;2.00;;;;;30.35;37.88;101219.75;5046451;28;45354;-69
2022/10/26 09:24:14;;;;;;;;;1.25;1.25;;;;;31.47;36.76;101207.72;5045555;28;45628;-69
2022/10/26 09:27:18;;;;;;;;;4.50;3.50;;;;;32.22;35.23;101222.50;5044567;28;46986;-67
2022/10/26 09:29:44;;;;;;;;;2.40;2.00;;;;;33.20;33.49;101199.84;5061819;28;45858;-68
2022/10/26 09:32:34;;;;;;;;;3.00;2.00;;;;;33.93;32.23;101195.25;5053119;28;45558;-69
2022/10/26 09:35:14;;;;;;;;;1.00;1.00;;;;;34.95;30.35;101193.16;5043405;28;45647;-68
2022/10/26 09:37:46;;;;;;;;;2.00;2.00;;;;;35.89;29.25;101206.00;5053773;28;46159;-71
2022/10/26 09:40:19;;;;;;;;;2.00;1.20;;;;;36.17;28.35;101211.50;5042293;28;45823;-68
2022/10/26 09:42:53;;;;;;;;;1.60;1.60;;;;;36.85;27.84;101213.75;5040094;28;45508;-70
2022/10/26 09:45:21;;;;;;;;;2.40;1.20;;;;;37.30;27.13;101220.94;5049895;28;45424;-68
2022/10/26 09:47:52;;;;;;;;;2.60;1.60;;;;;38.06;25.72;101197.50;5050418;28;45441;-69
2022/10/26 09:50:25;;;;;;;;;2.20;2.20;;;;;38.39;25.92;101218.47;5051136;28;45333;-69
2022/10/26 09:52:52;;;;;;;;;1.20;0.40;;;;;39.24;24.56;101223.69;5057150;28;45538;-68
2022/10/26 09:55:20;;;;;;;;;1.20;0.80;;;;;39.19;24.24;101231.56;5061258;28;45717;-68
2022/10/26 09:57:52;;;;;;;;;1.00;1.00;;;;;39.42;23.77;101225.41;5055703;28;46214;-69
2022/10/26 10:00:21;;;;;;;;;2.00;1.00;;;;;40.27;22.74;101233.00;5060500;28;45415;-70
2022/10/26 10:02:57;;;;;;;;;1.00;1.00;;;;;40.88;21.99;101242.22;5047244;28;45370;-70
2022/10/26 10:05:30;;;;;;;;;1.00;1.00;;;;;41.05;21.61;101240.22;5040664;28;45433;-69
2022/10/26 10:08:31;;;;;;;;;2.20;1.60;;;;;41.39;22.31;101251.78;5039554;28;47836;-70
2022/10/26 10:10:58;;;;;;;;;1.40;1.20;;;;;41.83;21.25;101234.47;4974763;28;45776;-68
2022/10/26 10:13:28;;;;;;;;;1.20;0.40;;;;;42.00;20.32;101240.66;5040858;28;45533;-68
2022/10/26 10:16:13;;;;;;;;;1.00;1.00;;;;;42.20;20.87;101255.53;5050116;28;45298;-69
2022/10/26 10:18:41;;;;;;;;;1.20;1.00;;;;;42.81;20.11;101252.44;5072855;27;45567;-71
2022/10/26 10:21:09;;;;;;;;;2.60;1.00;;;;;43.45;19.55;101247.88;5046221;28;45279;-70
2022/10/26 10:23:46;;;;;;;;;1.40;1.40;;;;;43.52;19.44;101254.31;5059981;28;45544;-73
2022/10/26 10:26:11;;;;;;;;;1.40;1.00;;;;;43.54;19.20;101257.72;5056089;28;45413;-73
2022/10/26 10:28:39;;;;;;;;;3.00;1.00;;;;;43.52;18.99;101262.56;5060603;28;46251;-72
2022/10/26 10:31:19;;;;;;;;;2.60;2.00;;;;;43.64;18.69;101241.72;5048570;28;45368;-72
2022/10/26 10:33:45;;;;;;;;;2.00;2.00;;;;;43.55;18.68;101275.97;5032842;28;45859;-71
2022/10/26 10:36:18;;;;;;;;;1.00;1.00;;;;;43.20;18.48;101281.44;5057829;28;45419;-74
2022/10/26 10:38:47;;;;;;;;;0.40;0.40;;;;;43.14;18.86;101271.16;5049097;28;46379;-69
2022/10/26 10:41:23;;;;;;;;;1.80;1.00;;;;;43.55;18.83;101273.22;5056235;28;45499;-71
2022/10/26 10:43:54;;;;;;;;;3.00;1.40;;;;;43.74;19.02;101275.28;5043397;28;45447;-71
2022/10/26 10:46:23;;;;;;;;;2.00;1.80;;;;;44.00;18.66;101274.59;5051181;28;45463;-71
2022/10/26 10:49:02;;;;;;;;;0.80;0.80;;;;;44.19;18.00;101280.44;5058220;28;45498;-71
2022/10/26 10:51:35;;;;;;;;;1.00;1.00;;;;;43.90;18.62;101256.66;5057311;28;45449;-72
2022/10/26 10:54:03;;;;;;;;;1.20;1.20;;;;;44.15;18.12;101282.72;5061676;28;46721;-72
2022/10/26 10:56:35;;;;;;;;;3.20;2.20;;;;;44.36;17.90;101289.19;5078330;27;45518;-72
2022/10/26 10:59:27;;;;;;;;;4.20;2.00;;;;;43.87;17.88;101281.94;5041896;28;47689;-71
2022/10/26 11:02:16;;;;;;;;;1.80;1.00;;;;;43.88;17.71;101298.28;5058621;28;45304;-73
2022/10/26 11:05:23;;;;;;;;;1.60;1.00;;;;;43.64;18.61;101294.13;5043982;28;45956;-72
2022/10/26 11:07:55;;;;;;;;;1.80;0.00;;;;;44.59;17.86;101294.38;5045231;28;45460;-71
2022/10/26 11:10:26;;;;;;;;;1.00;1.00;;;;;44.51;17.54;101300.94;5048469;28;47459;-73
2022/10/26 11:13:11;;;;;;;;;1.20;0.40;;;;;44.10;17.93;101287.19;5045960;28;45749;-72
2022/10/26 11:15:41;;;;;;;;;2.60;0.80;;;;;44.66;17.55;101298.00;5023905;28;45604;-72
2022/10/26 11:18:16;;;;;;;;;0.80;0.80;;;;;45.17;16.84;101302.16;5035237;28;45467;-72
2022/10/26 11:20:50;;;;;;;;;2.00;1.00;;;;;44.97;17.21;101314.06;5040997;28;46033;-73
2022/10/26 11:23:24;;;;;;;;;1.40;1.00;;;;;45.02;17.03;101283.03;5038002;28;45401;-73
2022/10/26 11:26:05;;;;;;;;;2.40;0.60;;;;;45.38;17.01;101304.72;5038501;28;45428;-73
2022/10/26 11:28:54;;;;;;;;;4.20;1.00;;;;;45.53;16.59;101312.78;5075201;28;45421;-73
2022/10/26 11:31:28;;;;;;;;;1.40;1.00;;;;;44.73;17.18;101273.16;5042875;28;45391;-71
2022/10/26 11:34:11;;;;;;;;;2.60;1.60;;;;;44.39;17.44;101303.41;5055463;28;45338;-71
2022/10/26 11:36:40;;;;;;;;;1.00;1.00;;;;;44.02;17.80;101301.97;5070564;28;45494;-71
2022/10/26 11:39:19;;;;;;;;;8.40;8.40;;;;;43.37;18.20;101302.13;5058501;28;45520;-72
2022/10/26 11:42:14;;;;;;;;;11.00;8.20;;;;;43.52;17.71;101301.19;5057757;28;45752;-70
2022/10/26 11:45:05;;;;;;;;;13.00;7.20;;;;;43.78;18.18;101304.19;5029326;28;46055;-72
2022/10/26 11:47:42;;;;;;;;;19.60;16.40;;;;;44.09;17.82;101302.00;5047064;28;45597;-73
2022/10/26 11:50:17;;;;;;;;;13.00;11.20;;;;;44.15;18.03;101326.06;5029119;28;45426;-73